Time;durP1;ratioP1;P1;durP2;ratioP2;P2;SDS_P1;SDS_P2;PMS_P1;PMS_P2;Temp;Humidity;BMP_temperature;BMP_pressure;BME280_temperature;BME280_humidity;BME280_pressure;Samples;Min_cycle;Max_cycle;Signal;HPM_P1;HPM_P2
2023/09/17 00:02:20;;;;;;;11.00;7.70;;;;;;;;;;6038106;23;20031;-76
2023/09/17 00:04:49;;;;;;;21.70;8.77;;;;;;;;;;6036455;23;20008;-75
2023/09/17 00:07:18;;;;;;;12.10;8.38;;;;;;;;;;6038083;23;20549;-76
2023/09/17 00:09:44;;;;;;;10.88;7.97;;;;;;;;;;6036345;23;20047;-75
2023/09/17 00:12:11;;;;;;;11.00;8.30;;;;;;;;;;6036257;23;20007;-75
2023/09/17 00:14:41;;;;;;;12.27;7.40;;;;;;;;;;6037575;23;20078;-76
2023/09/17 00:17:11;;;;;;;10.82;7.85;;;;;;;;;;6037903;23;20444;-75
2023/09/17 00:19:46;;;;;;;11.98;8.05;;;;;;;;;;6036310;23;20038;-74
2023/09/17 00:22:14;;;;;;;11.48;8.30;;;;;;;;;;6036633;23;20018;-75
2023/09/17 00:24:53;;;;;;;14.23;8.45;;;;;;;;;;6036367;23;20394;-77
2023/09/17 00:27:30;;;;;;;10.00;8.50;;;;;;;;;;6038883;23;20019;-77
2023/09/17 00:30:06;;;;;;;15.10;8.45;;;;;;;;;;6061413;23;20141;-75
2023/09/17 00:32:46;;;;;;;10.90;8.57;;;;;;;;;;6037522;23;20011;-74
2023/09/17 00:35:21;;;;;;;9.75;8.60;;;;;;;;;;6037813;23;20476;-76
2023/09/17 00:37:48;;;;;;;11.35;7.93;;;;;;;;;;6039794;23;20070;-76
2023/09/17 00:40:28;;;;;;;9.85;7.63;;;;;;;;;;6015148;23;20036;-76
2023/09/17 00:43:00;;;;;;;9.15;7.40;;;;;;;;;;6039014;23;20011;-75
2023/09/17 00:45:47;;;;;;;12.40;7.78;;;;;;;;;;6041239;23;20135;-77
2023/09/17 00:48:16;;;;;;;10.43;7.15;;;;;;;;;;6040528;23;20039;-77
2023/09/17 00:50:47;;;;;;;14.32;8.32;;;;;;;;;;6041909;23;20010;-76
2023/09/17 00:53:21;;;;;;;;;;;;;;;;;;6043341;23;20030;-74
2023/09/17 00:55:52;;;;;;;14.48;8.88;;;;;;;;;;6043085;23;19953;-75
2023/09/17 00:58:20;;;;;;;10.23;7.40;;;;;;;;;;6045739;23;20003;-76
2023/09/17 01:00:47;;;;;;;11.80;7.47;;;;;;;;;;6042650;23;20007;-76
2023/09/17 01:03:14;;;;;;;13.95;8.35;;;;;;;;;;6014172;23;20015;-76
2023/09/17 01:05:47;;;;;;;10.27;7.78;;;;;;;;;;6035648;23;20039;-74
2023/09/17 01:08:30;;;;;;;12.52;8.45;;;;;;;;;;6036150;23;20015;-76
2023/09/17 01:10:58;;;;;;;10.70;7.43;;;;;;;;;;6060761;23;20082;-74
2023/09/17 01:13:30;;;;;;;11.80;8.52;;;;;;;;;;6038572;23;20022;-75
2023/09/17 01:16:07;;;;;;;11.63;7.75;;;;;;;;;;6041318;23;20007;-74
2023/09/17 01:18:48;;;;;;;11.90;8.60;;;;;;;;;;6041882;23;20008;-76
2023/09/17 01:21:32;;;;;;;13.85;9.45;;;;;;;;;;6046087;23;20011;-77
2023/09/17 01:24:23;;;;;;;10.52;8.60;;;;;;;;;;6042776;23;20015;-75
2023/09/17 01:27:03;;;;;;;11.57;8.82;;;;;;;;;;6068263;23;20006;-75
2023/09/17 01:29:46;;;;;;;14.55;9.40;;;;;;;;;;6042429;23;20011;-75
2023/09/17 01:32:20;;;;;;;24.15;12.55;;;;;;;;;;6041968;23;20251;-75
2023/09/17 01:34:59;;;;;;;10.88;8.35;;;;;;;;;;6044717;23;20416;-78
2023/09/17 01:37:46;;;;;;;11.15;7.82;;;;;;;;;;6064002;23;20011;-75
2023/09/17 01:40:26;;;;;;;17.13;8.18;;;;;;;;;;6018748;23;20074;-76
2023/09/17 01:42:56;;;;;;;12.98;8.32;;;;;;;;;;6067120;23;20402;-75
2023/09/17 01:45:29;;;;;;;12.03;8.50;;;;;;;;;;6065980;23;20112;-75
2023/09/17 01:48:05;;;;;;;15.10;8.85;;;;;;;;;;6019557;23;20301;-75
2023/09/17 01:50:47;;;;;;;11.93;9.35;;;;;;;;;;6043404;23;20015;-74
2023/09/17 01:53:15;;;;;;;17.27;9.02;;;;;;;;;;6065862;23;20105;-75
2023/09/17 01:55:52;;;;;;;10.82;8.00;;;;;;;;;;6018454;23;20017;-76
2023/09/17 01:58:22;;;;;;;14.40;9.95;;;;;;;;;;6017382;23;20018;-74
2023/09/17 02:00:59;;;;;;;14.00;8.93;;;;;;;;;;6040078;23;20010;-75
2023/09/17 02:03:31;;;;;;;13.48;8.20;;;;;;;;;;6041312;23;20013;-76
2023/09/17 02:06:04;;;;;;;12.35;8.43;;;;;;;;;;6041484;23;20021;-77
2023/09/17 02:08:52;;;;;;;12.45;8.43;;;;;;;;;;6041886;23;20070;-76
2023/09/17 02:14:38;;;;;;;13.63;8.20;;;;;;;;;;6045585;23;20007;-76
2023/09/17 02:17:08;;;;;;;14.30;8.95;;;;;;;;;;6041571;23;20030;-75
2023/09/17 02:19:44;;;;;;;13.27;8.77;;;;;;;;;;6036946;23;20030;-76
2023/09/17 02:22:16;;;;;;;14.13;8.85;;;;;;;;;;6036780;23;20011;-75
2023/09/17 02:24:50;;;;;;;12.23;8.85;;;;;;;;;;6036658;23;20015;-76
2023/09/17 02:27:17;;;;;;;18.08;8.93;;;;;;;;;;6037521;23;20385;-75
2023/09/17 02:29:44;;;;;;;10.65;7.95;;;;;;;;;;6037301;23;20408;-75
2023/09/17 02:32:11;;;;;;;10.75;7.50;;;;;;;;;;6037556;23;20012;-78
2023/09/17 02:34:40;;;;;;;10.30;7.80;;;;;;;;;;6037174;23;20015;-76
2023/09/17 02:37:07;;;;;;;11.43;8.65;;;;;;;;;;6037101;23;20468;-76
2023/09/17 02:39:36;;;;;;;10.95;8.00;;;;;;;;;;6036489;23;20094;-75
2023/09/17 02:42:03;;;;;;;9.88;8.27;;;;;;;;;;6036727;23;20416;-76
2023/09/17 02:44:38;;;;;;;9.95;7.68;;;;;;;;;;6013228;23;20015;-74
2023/09/17 02:47:15;;;;;;;12.52;8.18;;;;;;;;;;6039363;23;20018;-75
2023/09/17 02:49:47;;;;;;;13.93;8.38;;;;;;;;;;6038011;23;20433;-76
2023/09/17 02:52:17;;;;;;;11.07;8.27;;;;;;;;;;6037574;23;20004;-76
2023/09/17 02:54:46;;;;;;;13.90;7.78;;;;;;;;;;6036129;23;20039;-76
2023/09/17 02:57:15;;;;;;;12.48;7.90;;;;;;;;;;6014211;23;20011;-76
2023/09/17 02:59:52;;;;;;;10.95;7.90;;;;;;;;;;6039403;23;20034;-75
2023/09/17 03:02:21;;;;;;;10.05;7.35;;;;;;;;;;6039130;23;20007;-76
2023/09/17 03:04:51;;;;;;;14.77;8.40;;;;;;;;;;6036575;23;20070;-75
2023/09/17 03:07:20;;;;;;;11.27;7.78;;;;;;;;;;6036186;23;20015;-76
2023/09/17 03:09:46;;;;;;;9.27;7.43;;;;;;;;;;6036505;23;20015;-75
2023/09/17 03:12:35;;;;;;;10.27;7.45;;;;;;;;;;6037047;23;20007;-75
2023/09/17 03:15:07;;;;;;;11.73;7.60;;;;;;;;;;6036189;23;20003;-75
2023/09/17 03:17:37;;;;;;;8.68;7.15;;;;;;;;;;6036353;23;20007;-75
2023/09/17 03:20:26;;;;;;;;;;;;;;;;;;;;;
2023/09/17 03:22:53;;;;;;;15.00;8.48;;;;;;;;;;6037609;23;20097;-76
2023/09/17 03:25:23;;;;;;;12.25;7.68;;;;;;;;;;6037893;23;20011;-75
2023/09/17 03:28:19;;;;;;;11.57;8.13;;;;;;;;;;6037971;23;20489;-76
2023/09/17 03:30:51;;;;;;;14.13;9.07;;;;;;;;;;6036483;23;20031;-76
2023/09/17 03:33:30;;;;;;;11.43;8.00;;;;;;;;;;6061500;23;20038;-75
2023/09/17 03:36:26;;;;;;;13.48;7.93;;;;;;;;;;6039844;23;20014;-76
2023/09/17 03:39:04;;;;;;;9.00;7.95;;;;;;;;;;6039121;23;20500;-75
2023/09/17 03:41:53;;;;;;;10.50;7.32;;;;;;;;;;6065168;23;20422;-77
2023/09/17 03:44:22;;;;;;;12.48;7.28;;;;;;;;;;6045620;23;20011;-76
2023/09/17 03:47:13;;;;;;;10.77;7.57;;;;;;;;;;6051982;23;20014;-76
2023/09/17 03:49:39;;;;;;;11.10;7.63;;;;;;;;;;6040923;23;20034;-75
2023/09/17 03:52:07;;;;;;;11.95;7.78;;;;;;;;;;6036673;23;20422;-76
2023/09/17 03:54:38;;;;;;;11.98;7.85;;;;;;;;;;6038304;23;20278;-75
2023/09/17 03:57:08;;;;;;;11.75;7.43;;;;;;;;;;6036435;23;20615;-74
2023/09/17 03:59:34;;;;;;;13.25;8.00;;;;;;;;;;6036599;23;20329;-75
2023/09/17 04:02:03;;;;;;;12.52;7.88;;;;;;;;;;6036625;23;20015;-75
2023/09/17 04:04:35;;;;;;;11.05;7.82;;;;;;;;;;6036021;23;20402;-76
2023/09/17 04:07:03;;;;;;;9.75;7.57;;;;;;;;;;6037758;23;20046;-75
2023/09/17 04:09:30;;;;;;;11.63;8.02;;;;;;;;;;6037491;23;20063;-75
2023/09/17 04:12:15;;;;;;;8.57;7.63;;;;;;;;;;6039531;23;20082;-78
2023/09/17 04:15:00;;;;;;;16.48;8.65;;;;;;;;;;6039305;23;20024;-75
2023/09/17 04:17:28;;;;;;;9.88;8.20;;;;;;;;;;6042101;23;20022;-74
2023/09/17 04:20:13;;;;;;;12.07;7.68;;;;;;;;;;6038053;23;20027;-75
2023/09/17 04:22:53;;;;;;;10.55;7.53;;;;;;;;;;6041968;23;20007;-77
2023/09/17 04:25:20;;;;;;;11.38;7.45;;;;;;;;;;6041065;23;20008;-77
2023/09/17 04:28:03;;;;;;;10.88;7.82;;;;;;;;;;6040736;23;20579;-74
2023/09/17 04:30:33;;;;;;;13.38;8.90;;;;;;;;;;6040714;23;20009;-75
2023/09/17 04:33:09;;;;;;;14.98;7.93;;;;;;;;;;6039031;23;20007;-75
2023/09/17 04:35:37;;;;;;;11.75;7.72;;;;;;;;;;6039044;23;20023;-75
2023/09/17 04:38:07;;;;;;;13.65;8.32;;;;;;;;;;6039261;23;20007;-77
2023/09/17 04:40:42;;;;;;;11.73;8.05;;;;;;;;;;6015349;23;20019;-76
2023/09/17 04:43:09;;;;;;;9.27;7.60;;;;;;;;;;6038175;23;20098;-76
2023/09/17 04:46:01;;;;;;;10.77;7.65;;;;;;;;;;6040100;23;20491;-77
2023/09/17 04:48:27;;;;;;;;;;;;;;;;;;6038961;23;20026;-76
2023/09/17 04:51:01;;;;;;;9.68;7.60;;;;;;;;;;6037686;23;19905;-74
2023/09/17 04:53:36;;;;;;;13.85;8.00;;;;;;;;;;6038843;23;20011;-75
2023/09/17 04:56:02;;;;;;;10.50;8.02;;;;;;;;;;6040374;23;20007;-76
2023/09/17 04:58:29;;;;;;;16.50;8.75;;;;;;;;;;6039648;23;20503;-75
2023/09/17 05:01:06;;;;;;;14.13;7.28;;;;;;;;;;6040864;23;20014;-75
2023/09/17 05:03:37;;;;;;;12.18;7.50;;;;;;;;;;6040711;23;20120;-78
2023/09/17 05:06:09;;;;;;;10.25;7.82;;;;;;;;;;6042481;23;20016;-76
2023/09/17 05:08:41;;;;;;;10.00;7.97;;;;;;;;;;6042870;23;20333;-75
2023/09/17 05:11:08;;;;;;;10.10;7.32;;;;;;;;;;6043335;23;20039;-76
2023/09/17 05:13:35;;;;;;;9.77;7.45;;;;;;;;;;6049195;23;20047;-77
2023/09/17 05:16:04;;;;;;;11.27;8.95;;;;;;;;;;6047630;23;20008;-75
2023/09/17 05:18:31;;;;;;;13.50;7.90;;;;;;;;;;6041712;23;20414;-76
2023/09/17 05:20:57;;;;;;;21.23;11.20;;;;;;;;;;6036064;23;20027;-75
2023/09/17 05:23:33;;;;;;;11.07;8.50;;;;;;;;;;6038129;23;20083;-76
2023/09/17 05:25:59;;;;;;;8.80;7.60;;;;;;;;;;6060202;23;20066;-75
2023/09/17 05:28:30;;;;;;;14.05;8.40;;;;;;;;;;6036084;23;20015;-75
2023/09/17 05:31:03;;;;;;;12.95;8.65;;;;;;;;;;6037707;23;20498;-76
2023/09/17 05:33:33;;;;;;;12.80;7.80;;;;;;;;;;6014496;23;20027;-75
2023/09/17 05:36:14;;;;;;;11.30;8.00;;;;;;;;;;6038378;23;19999;-76
2023/09/17 05:38:45;;;;;;;10.05;7.10;;;;;;;;;;6040144;23;20007;-77
2023/09/17 05:41:12;;;;;;;9.98;7.47;;;;;;;;;;6037535;23;20098;-76
2023/09/17 05:43:38;;;;;;;9.85;7.55;;;;;;;;;;6037543;23;20011;-76
2023/09/17 05:46:05;;;;;;;11.23;7.63;;;;;;;;;;6038419;23;20008;-75
2023/09/17 05:48:31;;;;;;;12.15;8.13;;;;;;;;;;6042162;23;19999;-76
2023/09/17 05:51:03;;;;;;;11.95;7.32;;;;;;;;;;6040929;23;20070;-75
2023/09/17 05:53:32;;;;;;;9.80;7.70;;;;;;;;;;6038919;23;20370;-77
2023/09/17 05:55:59;;;;;;;10.43;7.70;;;;;;;;;;6037621;23;20007;-77
2023/09/17 05:58:27;;;;;;;13.00;7.50;;;;;;;;;;6039999;23;20041;-76
2023/09/17 06:00:56;;;;;;;9.25;7.32;;;;;;;;;;6038329;23;20015;-75
2023/09/17 06:03:25;;;;;;;11.35;7.65;;;;;;;;;;6039106;23;20014;-76
2023/09/17 06:05:55;;;;;;;13.82;7.95;;;;;;;;;;6038538;23;20014;-76
2023/09/17 06:08:28;;;;;;;12.70;7.85;;;;;;;;;;6038590;23;20018;-78
2023/09/17 06:10:57;;;;;;;10.88;7.70;;;;;;;;;;6014868;23;20052;-78
2023/09/17 06:13:23;;;;;;;12.30;7.32;;;;;;;;;;6038352;23;20003;-76
2023/09/17 06:15:52;;;;;;;10.63;7.60;;;;;;;;;;6039756;23;20113;-75
2023/09/17 06:18:19;;;;;;;11.80;7.45;;;;;;;;;;6064196;23;20019;-76
2023/09/17 06:20:52;;;;;;;8.52;6.90;;;;;;;;;;6038946;23;20111;-76
2023/09/17 06:23:18;;;;;;;12.90;7.07;;;;;;;;;;6039609;23;20421;-74
2023/09/17 06:25:44;;;;;;;9.30;6.75;;;;;;;;;;6037300;23;20015;-76
2023/09/17 06:28:10;;;;;;;9.52;7.25;;;;;;;;;;6062145;23;20090;-75
2023/09/17 06:30:36;;;;;;;9.90;8.27;;;;;;;;;;6037478;23;20041;-75
2023/09/17 06:33:03;;;;;;;12.55;7.18;;;;;;;;;;6039529;23;20010;-76
2023/09/17 06:35:33;;;;;;;11.80;7.65;;;;;;;;;;6038860;23;20010;-77
2023/09/17 06:37:59;;;;;;;10.70;7.28;;;;;;;;;;6038256;23;20007;-76
2023/09/17 06:40:25;;;;;;;9.77;7.47;;;;;;;;;;6038284;23;20369;-76
2023/09/17 06:42:51;;;;;;;10.02;6.85;;;;;;;;;;6038458;23;20082;-75
2023/09/17 06:45:18;;;;;;;10.60;6.78;;;;;;;;;;6037836;23;20492;-77
2023/09/17 06:47:47;;;;;;;9.18;7.35;;;;;;;;;;6038511;23;20034;-75
2023/09/17 06:50:19;;;;;;;7.80;6.45;;;;;;;;;;6038634;23;20007;-74
2023/09/17 06:52:47;;;;;;;7.78;6.75;;;;;;;;;;6038458;23;20139;-77
2023/09/17 06:55:13;;;;;;;11.02;6.55;;;;;;;;;;6038574;23;20003;-75
2023/09/17 06:57:39;;;;;;;11.05;7.32;;;;;;;;;;6039223;23;20015;-77
2023/09/17 07:00:06;;;;;;;10.68;6.30;;;;;;;;;;6040265;23;20035;-76
2023/09/17 07:02:32;;;;;;;11.43;6.35;;;;;;;;;;6036180;23;20031;-76
2023/09/17 07:05:00;;;;;;;7.88;6.70;;;;;;;;;;6035126;23;20019;-75
2023/09/17 07:07:26;;;;;;;8.60;5.85;;;;;;;;;;6036957;23;20004;-75
2023/09/17 07:09:52;;;;;;;8.80;6.30;;;;;;;;;;6034822;23;20299;-75
2023/09/17 07:12:18;;;;;;;8.30;6.10;;;;;;;;;;6035251;23;20535;-77
2023/09/17 07:14:43;;;;;;;9.23;6.53;;;;;;;;;;6058725;23;20116;-76
2023/09/17 07:17:09;;;;;;;8.70;5.97;;;;;;;;;;6036861;23;20030;-76
2023/09/17 07:19:35;;;;;;;8.73;5.53;;;;;;;;;;6034752;23;20030;-77
2023/09/17 07:22:01;;;;;;;12.32;7.45;;;;;;;;;;6034682;23;20090;-76
2023/09/17 07:24:26;;;;;;;12.55;6.40;;;;;;;;;;6036510;23;20402;-76
2023/09/17 07:26:52;;;;;;;8.25;5.95;;;;;;;;;;6034921;23;20007;-77
2023/09/17 07:29:17;;;;;;;9.93;6.32;;;;;;;;;;6037445;23;20007;-77
2023/09/17 07:31:46;;;;;;;7.50;6.15;;;;;;;;;;6034930;23;20485;-76
2023/09/17 07:34:12;;;;;;;7.90;6.15;;;;;;;;;;6035130;23;20007;-76
2023/09/17 07:36:37;;;;;;;8.18;6.32;;;;;;;;;;6036708;23;20306;-76
2023/09/17 07:39:03;;;;;;;8.00;5.57;;;;;;;;;;6036347;23;20003;-75
2023/09/17 07:41:29;;;;;;;11.80;7.65;;;;;;;;;;6034826;23;20420;-77
2023/09/17 07:43:55;;;;;;;6.78;5.00;;;;;;;;;;6036538;23;20013;-76
2023/09/17 07:46:20;;;;;;;9.07;6.07;;;;;;;;;;6035108;23;20011;-77
2023/09/17 07:48:47;;;;;;;9.32;5.30;;;;;;;;;;6034972;23;20007;-76
2023/09/17 07:51:13;;;;;;;9.18;5.32;;;;;;;;;;6058685;23;20044;-75
2023/09/17 07:53:38;;;;;;;7.90;5.40;;;;;;;;;;6036918;23;20066;-76
2023/09/17 07:56:04;;;;;;;8.43;6.07;;;;;;;;;;6041218;23;20081;-76
2023/09/17 07:58:30;;;;;;;7.22;5.53;;;;;;;;;;6041935;23;20026;-77
2023/09/17 08:00:56;;;;;;;10.32;5.78;;;;;;;;;;6038578;23;20011;-77
2023/09/17 08:03:21;;;;;;;6.03;4.78;;;;;;;;;;6036479;23;20011;-77
2023/09/17 08:05:47;;;;;;;12.48;6.45;;;;;;;;;;6037838;23;20431;-78
2023/09/17 08:08:14;;;;;;;7.05;4.95;;;;;;;;;;6035553;23;20011;-77
2023/09/17 08:10:40;;;;;;;8.18;5.63;;;;;;;;;;6035752;23;20413;-77
2023/09/17 08:13:06;;;;;;;6.18;5.35;;;;;;;;;;6059483;23;20007;-77
2023/09/17 08:15:34;;;;;;;9.48;5.55;;;;;;;;;;6035309;23;20098;-76
2023/09/17 08:18:00;;;;;;;9.27;5.68;;;;;;;;;;6034739;23;20294;-76
2023/09/17 08:20:26;;;;;;;10.73;5.65;;;;;;;;;;6035141;23;20026;-76
2023/09/17 08:22:51;;;;;;;13.15;5.22;;;;;;;;;;6035089;23;20034;-77
2023/09/17 08:25:19;;;;;;;6.38;4.95;;;;;;;;;;6036541;23;20405;-77
2023/09/17 08:27:47;;;;;;;8.57;5.72;;;;;;;;;;6037605;23;20389;-77
2023/09/17 08:30:13;;;;;;;8.45;5.18;;;;;;;;;;6036363;23;20103;-77
2023/09/17 08:32:44;;;;;;;7.82;5.15;;;;;;;;;;6037458;23;20092;-78
2023/09/17 08:35:11;;;;;;;7.50;5.22;;;;;;;;;;6037524;23;20007;-77
2023/09/17 08:37:38;;;;;;;5.82;4.82;;;;;;;;;;6037182;23;20004;-78
2023/09/17 08:40:11;;;;;;;7.50;4.95;;;;;;;;;;6012264;23;20406;-76
2023/09/17 08:42:43;;;;;;;6.30;5.18;;;;;;;;;;6036111;23;20007;-76
2023/09/17 08:45:12;;;;;;;6.05;5.43;;;;;;;;;;6037085;23;20027;-77
2023/09/17 08:47:38;;;;;;;7.68;5.20;;;;;;;;;;6034679;23;20011;-77
2023/09/17 08:50:10;;;;;;;5.90;4.65;;;;;;;;;;6034801;23;20075;-76
2023/09/17 08:52:43;;;;;;;8.85;5.30;;;;;;;;;;6011855;23;20015;-76
2023/09/17 08:55:26;;;;;;;10.95;4.65;;;;;;;;;;6035947;23;20003;-75
2023/09/17 08:58:31;;;;;;;8.23;5.13;;;;;;;;;;6033866;23;20011;-77
2023/09/17 09:01:03;;;;;;;6.20;5.53;;;;;;;;;;6028668;23;20510;-77
2023/09/17 09:03:33;;;;;;;8.07;4.82;;;;;;;;;;6034416;23;20007;-77
2023/09/17 09:06:00;;;;;;;19.30;8.30;;;;;;;;;;6033984;23;20043;-76
2023/09/17 09:08:25;;;;;;;7.28;4.95;;;;;;;;;;6034451;23;20574;-76
2023/09/17 09:10:51;;;;;;;5.97;4.93;;;;;;;;;;6034768;23;20046;-77
2023/09/17 09:13:18;;;;;;;6.15;4.85;;;;;;;;;;6034791;23;20003;-77
2023/09/17 09:15:45;;;;;;;9.00;4.55;;;;;;;;;;6012354;23;20011;-76
2023/09/17 09:18:11;;;;;;;7.93;4.60;;;;;;;;;;6036941;23;20007;-77
2023/09/17 09:20:39;;;;;;;5.00;4.30;;;;;;;;;;6038593;23;20023;-76
2023/09/17 09:23:05;;;;;;;6.45;4.45;;;;;;;;;;6039274;23;20020;-75
2023/09/17 09:25:31;;;;;;;50.78;7.63;;;;;;;;;;6042050;23;20007;-76
2023/09/17 09:28:03;;;;;;;7.53;4.30;;;;;;;;;;6040041;23;20039;-78
2023/09/17 09:30:29;;;;;;;8.30;4.60;;;;;;;;;;6038612;23;20445;-78
2023/09/17 09:32:56;;;;;;;6.72;3.88;;;;;;;;;;6041504;23;20067;-78
2023/09/17 09:35:23;;;;;;;8.98;5.38;;;;;;;;;;6044129;23;20031;-77
2023/09/17 09:37:49;;;;;;;6.90;4.35;;;;;;;;;;6041933;23;20009;-77
2023/09/17 09:40:15;;;;;;;5.18;4.30;;;;;;;;;;6037697;23;20015;-77
2023/09/17 09:42:46;;;;;;;7.43;4.63;;;;;;;;;;6036855;23;20163;-75
2023/09/17 09:45:15;;;;;;;5.47;4.00;;;;;;;;;;6036059;23;20013;-75
2023/09/17 09:47:50;;;;;;;6.45;4.25;;;;;;;;;;6038735;23;20003;-77
2023/09/17 09:50:26;;;;;;;7.28;4.38;;;;;;;;;;6036084;23;20035;-76
2023/09/17 09:52:53;;;;;;;5.43;3.97;;;;;;;;;;6036071;23;20007;-76
2023/09/17 09:55:23;;;;;;;6.15;4.13;;;;;;;;;;6038094;23;20315;-76
2023/09/17 09:57:49;;;;;;;4.82;3.97;;;;;;;;;;6037362;23;20192;-75
2023/09/17 10:00:15;;;;;;;8.45;4.07;;;;;;;;;;6036019;23;20029;-77
2023/09/17 10:02:42;;;;;;;6.80;4.40;;;;;;;;;;6037611;23;20070;-77
2023/09/17 10:05:10;;;;;;;4.32;3.80;;;;;;;;;;6035594;23;20523;-76
2023/09/17 10:07:36;;;;;;;8.15;3.80;;;;;;;;;;6037271;23;20366;-76
2023/09/17 10:10:03;;;;;;;3.88;3.58;;;;;;;;;;6035762;23;20038;-77
2023/09/17 10:12:29;;;;;;;9.77;4.18;;;;;;;;;;6036010;23;20024;-77
2023/09/17 10:14:55;;;;;;;7.22;4.22;;;;;;;;;;6036036;23;20075;-76
2023/09/17 10:17:21;;;;;;;6.65;4.25;;;;;;;;;;6036007;23;20003;-75
2023/09/17 10:19:49;;;;;;;3.95;3.60;;;;;;;;;;6059279;23;20356;-76
2023/09/17 10:22:15;;;;;;;8.75;3.72;;;;;;;;;;6036816;23;20018;-77
2023/09/17 10:24:42;;;;;;;9.73;4.32;;;;;;;;;;6036382;23;20015;-76
2023/09/17 10:27:08;;;;;;;6.07;4.05;;;;;;;;;;6037561;23;20011;-77
2023/09/17 10:29:42;;;;;;;7.47;4.07;;;;;;;;;;6036544;23;20007;-77
2023/09/17 10:32:09;;;;;;;7.93;3.90;;;;;;;;;;6013315;23;20082;-77
2023/09/17 10:34:35;;;;;;;4.57;4.07;;;;;;;;;;6038264;23;20422;-78
2023/09/17 10:37:02;;;;;;;4.88;3.70;;;;;;;;;;6035804;23;20010;-77
2023/09/17 10:39:29;;;;;;;6.68;3.55;;;;;;;;;;6036351;23;20437;-77
2023/09/17 10:41:55;;;;;;;3.92;3.53;;;;;;;;;;6038231;23;20465;-76
2023/09/17 10:44:23;;;;;;;4.63;3.95;;;;;;;;;;6038247;23;20046;-78
2023/09/17 10:46:49;;;;;;;4.35;3.63;;;;;;;;;;6015943;23;20046;-78
2023/09/17 10:49:17;;;;;;;4.22;3.83;;;;;;;;;;6043430;23;20078;-76
2023/09/17 10:51:45;;;;;;;4.90;3.70;;;;;;;;;;6048483;23;20027;-77
2023/09/17 10:54:11;;;;;;;4.03;3.65;;;;;;;;;;6044225;23;20443;-77
2023/09/17 10:56:41;;;;;;;5.40;3.97;;;;;;;;;;6045425;23;20011;-77
2023/09/17 10:59:12;;;;;;;4.50;4.10;;;;;;;;;;6038766;23;20007;-76
2023/09/17 11:01:41;;;;;;;5.93;4.15;;;;;;;;;;6037220;23;20071;-76
2023/09/17 11:04:13;;;;;;;3.83;3.45;;;;;;;;;;6036192;23;20011;-77
2023/09/17 11:06:42;;;;;;;6.90;4.15;;;;;;;;;;6060932;23;20015;-75
2023/09/17 11:09:08;;;;;;;4.13;3.70;;;;;;;;;;6037528;23;20018;-76
2023/09/17 11:11:35;;;;;;;6.93;3.72;;;;;;;;;;6064458;23;20007;-76
2023/09/17 11:14:03;;;;;;;5.30;3.67;;;;;;;;;;6064099;23;20011;-78
2023/09/17 11:16:29;;;;;;;4.75;3.92;;;;;;;;;;6015555;23;20012;-76
2023/09/17 11:19:13;;;;;;;4.18;3.67;;;;;;;;;;6040485;23;20078;-77
2023/09/17 11:22:08;;;;;;;4.75;3.35;;;;;;;;;;6040447;23;20015;-76
2023/09/17 11:24:36;;;;;;;5.47;3.72;;;;;;;;;;6039875;23;20018;-76
2023/09/17 11:27:04;;;;;;;3.60;3.30;;;;;;;;;;6040266;23;20032;-76
2023/09/17 11:29:45;;;;;;;4.55;3.97;;;;;;;;;;6040423;23;20011;-77
2023/09/17 11:32:13;;;;;;;4.05;3.03;;;;;;;;;;6040081;23;20017;-76
2023/09/17 11:34:41;;;;;;;5.25;3.08;;;;;;;;;;6040067;23;20022;-75
2023/09/17 11:37:07;;;;;;;7.15;3.28;;;;;;;;;;6039536;23;20007;-76
2023/09/17 11:39:38;;;;;;;3.92;3.08;;;;;;;;;;6039783;23;20011;-77
2023/09/17 11:42:07;;;;;;;8.07;3.58;;;;;;;;;;6063462;23;20091;-77
2023/09/17 11:44:34;;;;;;;6.07;3.53;;;;;;;;;;6039562;23;20035;-77
2023/09/17 11:47:00;;;;;;;4.15;3.70;;;;;;;;;;6039553;23;20118;-76
2023/09/17 11:49:28;;;;;;;7.85;3.15;;;;;;;;;;6039693;23;20025;-76
2023/09/17 11:51:57;;;;;;;5.05;3.28;;;;;;;;;;6065198;23;20341;-76
2023/09/17 11:54:25;;;;;;;3.95;3.20;;;;;;;;;;6039621;23;20003;-77
2023/09/17 11:56:53;;;;;;;3.83;2.70;;;;;;;;;;6039143;23;20011;-76
2023/09/17 11:59:23;;;;;;;5.60;3.10;;;;;;;;;;6039258;23;20109;-78
2023/09/17 12:01:50;;;;;;;5.40;3.28;;;;;;;;;;6038670;23;20427;-77
2023/09/17 12:04:17;;;;;;;4.90;3.15;;;;;;;;;;6038568;23;20018;-77
2023/09/17 12:06:45;;;;;;;3.75;3.38;;;;;;;;;;6062876;23;20007;-77
2023/09/17 12:11:57;;;;;;;4.03;3.53;;;;;;;;;;6018695;23;20318;-76
2023/09/17 12:14:23;;;;;;;3.53;3.20;;;;;;;;;;6038090;23;20045;-76
2023/09/17 12:16:50;;;;;;;4.38;3.17;;;;;;;;;;6062659;23;20011;-77
2023/09/17 12:19:20;;;;;;;4.97;3.70;;;;;;;;;;6039022;23;20030;-77
2023/09/17 12:21:48;;;;;;;3.88;3.38;;;;;;;;;;6015347;23;20358;-76
2023/09/17 12:24:30;;;;;;;5.13;3.42;;;;;;;;;;6039062;23;20014;-76
2023/09/17 12:29:32;;;;;;;4.07;3.67;;;;;;;;;;6075018;23;20451;-77
2023/09/17 12:31:58;;;;;;;4.03;3.35;;;;;;;;;;6039496;23;20010;-76
2023/09/17 12:34:27;;;;;;;5.97;3.00;;;;;;;;;;6064961;23;20082;-76
2023/09/17 12:36:53;;;;;;;3.55;3.00;;;;;;;;;;6040462;23;20015;-77
2023/09/17 12:39:20;;;;;;;4.75;3.40;;;;;;;;;;6064703;23;20080;-76
2023/09/17 12:41:45;;;;;;;3.22;2.92;;;;;;;;;;6039391;23;20520;-76
2023/09/17 12:44:12;;;;;;;4.28;3.85;;;;;;;;;;6038535;23;20047;-77
2023/09/17 12:46:38;;;;;;;3.95;3.55;;;;;;;;;;6038742;23;20007;-76
2023/09/17 12:49:04;;;;;;;3.78;3.47;;;;;;;;;;6039295;23;20007;-77
2023/09/17 12:51:30;;;;;;;4.80;3.40;;;;;;;;;;6065506;23;20509;-77
2023/09/17 12:53:56;;;;;;;3.90;3.50;;;;;;;;;;6065178;23;20332;-77
2023/09/17 12:56:22;;;;;;;4.63;3.38;;;;;;;;;;6038414;23;20448;-76
2023/09/17 12:58:51;;;;;;;3.50;3.05;;;;;;;;;;6015007;23;20006;-79
2023/09/17 13:01:18;;;;;;;3.90;3.15;;;;;;;;;;6064599;23;20037;-79
2023/09/17 13:04:09;;;;;;;5.70;3.08;;;;;;;;;;6039991;23;20007;-79
2023/09/17 13:06:36;;;;;;;6.55;3.90;;;;;;;;;;6062832;23;20075;-80
2023/09/17 13:09:02;;;;;;;4.35;3.13;;;;;;;;;;6073198;23;20030;-80
2023/09/17 13:11:28;;;;;;;2.95;2.67;;;;;;;;;;6050749;23;20175;-79
2023/09/17 13:13:56;;;;;;;3.22;2.92;;;;;;;;;;6072814;23;19999;-81
2023/09/17 13:16:22;;;;;;;4.13;3.13;;;;;;;;;;6069289;23;20007;-78
2023/09/17 13:18:49;;;;;;;3.63;2.72;;;;;;;;;;6042284;23;20085;-80
2023/09/17 13:21:17;;;;;;;3.22;2.80;;;;;;;;;;6065812;23;20147;-79
2023/09/17 13:23:42;;;;;;;12.93;3.65;;;;;;;;;;6041824;23;20098;-77
2023/09/17 13:26:08;;;;;;;4.43;3.40;;;;;;;;;;6041656;23;20411;-79
2023/09/17 13:28:36;;;;;;;2.92;2.60;;;;;;;;;;6042101;23;20007;-79
2023/09/17 13:31:06;;;;;;;4.50;3.00;;;;;;;;;;6041561;23;20372;-78
2023/09/17 13:33:33;;;;;;;2.97;2.63;;;;;;;;;;6066579;23;20011;-79
2023/09/17 13:36:01;;;;;;;4.70;2.90;;;;;;;;;;6042630;23;20037;-79
2023/09/17 13:38:29;;;;;;;3.22;2.42;;;;;;;;;;6043885;23;20010;-79
2023/09/17 13:40:54;;;;;;;3.70;3.00;;;;;;;;;;6069593;23;20013;-80
2023/09/17 13:43:20;;;;;;;5.10;3.15;;;;;;;;;;6048893;23;20014;-79
2023/09/17 13:45:57;;;;;;;4.97;3.42;;;;;;;;;;6049004;23;20085;-79
2023/09/17 13:48:24;;;;;;;2.70;2.50;;;;;;;;;;6046224;23;20013;-79
2023/09/17 13:50:49;;;;;;;3.13;2.22;;;;;;;;;;6072245;23;20003;-79
2023/09/17 13:53:16;;;;;;;4.15;2.80;;;;;;;;;;6041810;23;20106;-78
2023/09/17 13:55:42;;;;;;;6.25;3.00;;;;;;;;;;6068982;23;20026;-79
2023/09/17 13:58:08;;;;;;;3.22;2.78;;;;;;;;;;6042548;23;20428;-78
2023/09/17 14:00:33;;;;;;;7.07;2.40;;;;;;;;;;6042681;23;20488;-78
2023/09/17 14:03:07;;;;;;;5.82;3.03;;;;;;;;;;6041724;23;20054;-77
2023/09/17 14:05:32;;;;;;;2.63;2.42;;;;;;;;;;6041918;23;20002;-80
2023/09/17 14:07:59;;;;;;;6.55;2.95;;;;;;;;;;6041810;23;20011;-79
2023/09/17 14:10:25;;;;;;;6.80;3.10;;;;;;;;;;6041619;23;20321;-80
2023/09/17 14:12:51;;;;;;;4.85;2.70;;;;;;;;;;6041406;23;20022;-76
2023/09/17 14:15:16;;;;;;;4.72;3.15;;;;;;;;;;6040842;23;20011;-76
2023/09/17 14:17:42;;;;;;;4.25;3.22;;;;;;;;;;6041213;23;20015;-77
2023/09/17 14:20:09;;;;;;;4.25;2.80;;;;;;;;;;6065124;23;20026;-76
2023/09/17 14:22:35;;;;;;;5.28;2.97;;;;;;;;;;6039839;23;20065;-76
2023/09/17 14:25:03;;;;;;;5.18;3.10;;;;;;;;;;6065507;23;20092;-77
2023/09/17 14:27:29;;;;;;;4.25;2.47;;;;;;;;;;6040125;23;20089;-77
2023/09/17 14:29:55;;;;;;;3.90;2.83;;;;;;;;;;6045243;23;20098;-76
2023/09/17 14:32:22;;;;;;;5.97;3.05;;;;;;;;;;6063877;23;20007;-76
2023/09/17 14:34:49;;;;;;;4.18;2.90;;;;;;;;;;6040202;23;20033;-78
2023/09/17 14:37:15;;;;;;;3.53;2.72;;;;;;;;;;6039688;23;20017;-77
2023/09/17 14:39:41;;;;;;;8.15;2.78;;;;;;;;;;6039752;23;20110;-76
2023/09/17 14:42:08;;;;;;;2.75;2.42;;;;;;;;;;6065372;23;20006;-78
2023/09/17 14:44:33;;;;;;;4.45;2.97;;;;;;;;;;6063660;23;20014;-76
2023/09/17 14:46:59;;;;;;;6.03;2.80;;;;;;;;;;6039691;23;20034;-78
2023/09/17 14:49:26;;;;;;;4.85;3.30;;;;;;;;;;6065021;23;20018;-77
2023/09/17 14:51:52;;;;;;;5.82;2.67;;;;;;;;;;6065207;23;20014;-76
2023/09/17 14:54:18;;;;;;;4.15;3.22;;;;;;;;;;6039588;23;20011;-77
2023/09/17 14:56:43;;;;;;;4.45;2.90;;;;;;;;;;6039843;23;20420;-76
2023/09/17 14:59:09;;;;;;;3.10;2.65;;;;;;;;;;6038815;23;20065;-76
2023/09/17 15:01:35;;;;;;;3.58;3.00;;;;;;;;;;6065203;23;20003;-77
2023/09/17 15:04:02;;;;;;;5.38;3.35;;;;;;;;;;6065250;23;20006;-76